createdAt,value
2019-05-21T00:01:43.671Z,14.35
2019-05-21T00:06:47.973Z,13.75
2019-05-21T00:11:52.281Z,13.85
2019-05-21T00:16:56.588Z,11.12
2019-05-21T00:22:00.885Z,14.43
2019-05-21T00:27:05.198Z,12.37
2019-05-21T00:33:04.280Z,10.03
2019-05-21T00:39:03.937Z,9.13
2019-05-21T00:44:08.382Z,12.93
2019-05-21T00:49:12.701Z,10.95
2019-05-21T00:54:17.069Z,13.08
2019-05-21T00:59:21.382Z,12.85
2019-05-21T01:04:25.681Z,11.68
2019-05-21T01:09:29.995Z,11.43
2019-05-21T01:14:34.300Z,11.30
2019-05-21T01:19:38.615Z,11.33
2019-05-21T01:24:42.993Z,10.60
2019-05-21T01:29:47.301Z,10.60
2019-05-21T01:34:51.606Z,10.30
2019-05-21T01:39:56.092Z,10.80
2019-05-21T01:45:00.407Z,11.97
2019-05-21T01:50:06.257Z,11.03
2019-05-21T01:55:10.792Z,11.33
2019-05-21T02:00:15.346Z,11.08
2019-05-21T02:05:32.022Z,7.28
2019-05-21T02:10:25.672Z,10.18
2019-05-21T02:15:31.521Z,10.90
2019-05-21T02:20:35.834Z,10.88
2019-05-21T02:25:40.875Z,9.53
2019-05-21T02:30:45.184Z,9.80
2019-05-21T02:35:54.192Z,9.53
2019-05-21T02:40:55.755Z,9.75
2019-05-21T02:46:00.060Z,9.05
2019-05-21T02:51:04.360Z,8.43
2019-05-21T02:56:08.687Z,10.48
2019-05-21T03:01:17.673Z,9.40
2019-05-21T03:06:20.645Z,9.28
2019-05-21T03:11:24.939Z,9.18
2019-05-21T03:16:29.244Z,8.40
2019-05-21T03:21:33.550Z,7.72
2019-05-21T03:26:37.848Z,7.65
2019-05-21T03:31:42.146Z,7.67
2019-05-21T03:36:46.456Z,8.33
2019-05-21T03:41:50.771Z,8.40
2019-05-21T03:46:55.639Z,7.50
2019-05-21T03:51:59.945Z,8.00
2019-05-21T03:57:04.413Z,7.08
2019-05-21T04:02:08.716Z,7.40
2019-05-21T04:07:13.024Z,7.80
2019-05-21T04:12:17.408Z,7.60
2019-05-21T04:17:26.300Z,8.75
2019-05-21T04:22:30.611Z,6.90
2019-05-21T04:27:34.905Z,6.90
2019-05-21T04:32:39.211Z,6.90
2019-05-21T04:37:43.528Z,6.35
2019-05-21T04:42:47.884Z,7.42
2019-05-21T04:47:52.190Z,7.47
2019-05-21T04:52:56.523Z,7.90
2019-05-21T04:58:00.808Z,6.78
2019-05-21T05:03:05.118Z,7.78
2019-05-21T05:08:09.419Z,7.50
2019-05-21T05:13:13.890Z,7.35
2019-05-21T05:18:18.278Z,7.87
2019-05-21T05:23:22.581Z,7.75
2019-05-21T05:28:26.888Z,5.78
2019-05-21T05:33:31.191Z,7.30
2019-05-21T05:38:35.490Z,9.68
2019-05-21T05:43:39.796Z,9.73
2019-05-21T05:48:48.392Z,11.10
2019-05-21T05:53:58.372Z,13.85
2019-05-21T05:59:02.687Z,19.65
2019-05-21T06:04:06.995Z,20.70
2019-05-21T06:09:11.363Z,19.27
2019-05-21T06:14:15.674Z,17.45
2019-05-21T06:19:19.992Z,18.50
2019-05-21T06:24:24.296Z,18.17
2019-05-21T06:29:28.595Z,21.87
2019-05-21T06:34:32.906Z,19.30
2019-05-21T06:39:37.257Z,14.87
2019-05-21T06:44:44.724Z,15.10
2019-05-21T06:49:49.124Z,19.35
2019-05-21T06:54:53.435Z,21.65
2019-05-21T06:59:57.806Z,20.08
2019-05-21T07:05:02.240Z,20.15
2019-05-21T07:10:08.545Z,18.50
2019-05-21T07:15:13.263Z,18.37
2019-05-21T07:20:18.570Z,17.57
2019-05-21T07:25:22.884Z,18.95
2019-05-21T07:30:27.323Z,26.35
2019-05-21T07:35:31.631Z,22.35
2019-05-21T07:40:35.966Z,19.42
2019-05-21T07:45:40.555Z,19.35
2019-05-21T07:50:44.875Z,17.25
2019-05-21T07:55:49.171Z,16.12
2019-05-21T08:00:53.482Z,15.25
2019-05-21T08:05:57.785Z,14.55
2019-05-21T08:11:02.109Z,14.63
2019-05-21T08:16:06.425Z,13.65
2019-05-21T08:21:10.729Z,13.80
2019-05-21T08:26:15.033Z,13.45
2019-05-21T08:31:19.347Z,12.73
2019-05-21T08:36:23.660Z,12.15
2019-05-21T08:41:28.034Z,12.33
2019-05-21T08:46:32.382Z,12.30
2019-05-21T08:51:36.732Z,12.60
2019-05-21T08:56:41.076Z,11.25
2019-05-21T09:01:45.551Z,11.40
2019-05-21T09:06:49.847Z,11.57
2019-05-21T09:11:54.196Z,11.90
2019-05-21T09:16:58.505Z,10.93
2019-05-21T09:22:02.810Z,10.18
2019-05-21T09:27:07.128Z,10.50
2019-05-21T09:32:11.501Z,9.70
2019-05-21T09:37:19.906Z,9.03
2019-05-21T09:42:21.839Z,9.48
2019-05-21T09:47:26.149Z,9.30
2019-05-21T09:52:30.471Z,8.98
2019-05-21T09:57:36.649Z,8.38
2019-05-21T10:02:41.023Z,8.25
2019-05-21T10:07:45.333Z,8.88
2019-05-21T10:12:49.620Z,8.25
2019-05-21T10:17:53.923Z,8.43
2019-05-21T10:22:58.289Z,7.33
2019-05-21T10:28:02.599Z,7.22
2019-05-21T10:33:06.912Z,7.50
2019-05-21T10:38:11.203Z,8.40
2019-05-21T10:43:15.577Z,11.38
2019-05-21T10:48:19.898Z,11.97
2019-05-21T10:53:24.227Z,14.80
2019-05-21T10:58:28.548Z,14.90
2019-05-21T11:03:50.349Z,12.03
2019-05-21T11:08:54.830Z,11.60
2019-05-21T11:13:59.139Z,9.78
2019-05-21T11:19:03.500Z,8.93
2019-05-21T11:24:08.103Z,9.60
2019-05-21T11:29:12.443Z,8.78
2019-05-21T11:34:16.705Z,8.65
2019-05-21T11:39:21.004Z,8.13
2019-05-21T11:44:25.354Z,7.70
2019-05-21T11:49:29.652Z,7.65
2019-05-21T11:54:33.943Z,7.10
2019-05-21T11:59:38.255Z,7.20
2019-05-21T12:04:42.558Z,5.95
2019-05-21T12:09:46.865Z,6.22
2019-05-21T12:14:51.156Z,6.60
2019-05-21T12:19:55.461Z,6.03
2019-05-21T12:24:59.763Z,6.37
2019-05-21T12:30:07.036Z,5.67
2019-05-21T12:35:11.946Z,5.22
2019-05-21T12:40:16.963Z,5.35
2019-05-21T12:45:21.262Z,4.22
2019-05-21T12:50:26.199Z,5.05
2019-05-21T12:55:30.503Z,4.17
2019-05-21T13:00:37.671Z,4.78
2019-05-21T13:05:42.126Z,5.30
2019-05-21T13:10:46.462Z,4.75
2019-05-21T13:15:50.763Z,4.55
2019-05-21T13:20:55.140Z,4.70
2019-05-21T13:25:59.626Z,4.67
2019-05-21T13:31:03.932Z,4.87
2019-05-21T13:36:08.265Z,5.03
2019-05-21T13:41:12.721Z,4.42
2019-05-21T13:46:17.030Z,4.42
2019-05-21T13:51:21.383Z,4.08
2019-05-21T13:56:25.748Z,4.90
2019-05-21T14:01:40.174Z,4.30
2019-05-21T14:06:36.090Z,4.10
2019-05-21T14:11:40.757Z,4.40
2019-05-21T14:16:45.079Z,4.40
2019-05-21T14:21:49.383Z,4.95
2019-05-21T14:26:53.664Z,4.40
2019-05-21T14:31:57.980Z,4.78
2019-05-21T14:37:02.304Z,4.95
2019-05-21T14:42:06.597Z,4.87
2019-05-21T14:47:10.905Z,4.72
2019-05-21T14:52:15.201Z,5.08
2019-05-21T14:57:19.527Z,4.45
2019-05-21T15:02:23.814Z,4.53
2019-05-21T15:07:28.107Z,4.78
2019-05-21T15:12:32.421Z,5.00
2019-05-21T15:17:36.831Z,4.67
2019-05-21T15:22:41.157Z,4.72
2019-05-21T15:27:45.466Z,4.92
2019-05-21T15:32:50.540Z,5.37
2019-05-21T15:37:54.836Z,5.42
2019-05-21T15:42:59.181Z,6.97
2019-05-21T15:48:03.464Z,7.65
2019-05-21T15:53:07.769Z,7.65
2019-05-21T15:58:12.081Z,7.03
2019-05-21T16:03:16.383Z,11.22
2019-05-21T16:08:20.713Z,10.60
2019-05-21T16:13:25.043Z,8.50
2019-05-21T16:18:29.360Z,8.90
2019-05-21T16:23:33.661Z,9.50
2019-05-21T16:28:37.989Z,10.20
2019-05-21T16:33:42.461Z,9.75
2019-05-21T16:38:46.780Z,22.32
2019-05-21T16:43:51.113Z,364.57
2019-05-21T16:48:55.433Z,296.87
2019-05-21T16:53:59.739Z,534.92
2019-05-21T16:59:04.127Z,394.37
2019-05-21T17:04:08.448Z,382.65
2019-05-21T17:09:13.795Z,339.72
2019-05-21T17:14:18.122Z,295.52
2019-05-21T17:19:22.425Z,257.75
2019-05-21T17:24:26.733Z,187.80
2019-05-21T17:29:31.079Z,156.15
2019-05-21T17:34:35.465Z,121.02
2019-05-21T17:39:39.772Z,97.20
2019-05-21T17:44:44.160Z,86.70
2019-05-21T17:49:53.499Z,80.53
2019-05-21T17:54:57.791Z,70.40
2019-05-21T18:00:02.196Z,60.38
2019-05-21T18:05:10.260Z,49.15
2019-05-21T18:10:17.132Z,27.73
2019-05-21T18:15:21.794Z,21.33
2019-05-21T18:20:26.424Z,29.57
2019-05-21T18:25:30.754Z,21.10
2019-05-21T18:30:35.243Z,19.15
2019-05-21T18:35:39.539Z,18.32
2019-05-21T18:40:43.845Z,17.40
2019-05-21T18:45:48.159Z,15.45
2019-05-21T18:50:53.294Z,13.78
2019-05-21T18:55:57.604Z,13.13
2019-05-21T19:01:01.912Z,10.03
2019-05-21T19:06:06.278Z,9.33
2019-05-21T19:11:10.592Z,9.60
2019-05-21T19:16:15.034Z,11.48
2019-05-21T19:21:19.356Z,9.03
2019-05-21T19:26:23.827Z,8.90
2019-05-21T19:31:28.128Z,8.60
2019-05-21T19:36:32.434Z,7.83
2019-05-21T19:41:36.747Z,7.83
2019-05-21T19:46:41.050Z,7.22
2019-05-21T19:51:45.358Z,6.95
2019-05-21T19:56:49.830Z,7.17
2019-05-21T20:01:55.974Z,7.30
2019-05-21T20:07:00.408Z,6.33
2019-05-21T20:12:06.620Z,6.30
2019-05-21T20:17:12.123Z,6.25
2019-05-21T20:22:17.762Z,5.87
2019-05-21T20:27:22.249Z,5.53
2019-05-21T20:32:27.218Z,5.67
2019-05-21T20:37:31.604Z,5.65
2019-05-21T20:42:35.912Z,6.37
2019-05-21T20:47:40.550Z,7.42
2019-05-21T20:52:45.565Z,6.12
2019-05-21T20:57:50.069Z,5.58
2019-05-21T21:02:54.378Z,5.92
2019-05-21T21:07:59.246Z,5.60
2019-05-21T21:13:05.057Z,6.05
2019-05-21T21:18:09.713Z,6.55
2019-05-21T21:23:15.656Z,6.55
2019-05-21T21:28:20.404Z,6.35
2019-05-21T21:33:24.716Z,6.28
2019-05-21T21:38:31.267Z,6.62
2019-05-21T21:43:35.935Z,7.40
2019-05-21T21:48:40.249Z,6.97
2019-05-21T21:53:44.720Z,7.28
2019-05-21T21:58:49.016Z,5.22
2019-05-21T22:03:53.645Z,7.22
2019-05-21T22:08:58.217Z,7.12
2019-05-21T22:14:04.022Z,7.55
2019-05-21T22:19:09.371Z,7.55
2019-05-21T22:24:14.711Z,7.47
2019-05-21T22:29:19.299Z,6.00
2019-05-21T22:34:23.774Z,7.25
2019-05-21T22:39:29.858Z,8.43
2019-05-21T22:44:34.675Z,6.97
2019-05-21T22:49:39.021Z,8.05
2019-05-21T22:54:43.375Z,8.15
2019-05-21T22:59:48.152Z,8.58
2019-05-21T23:04:53.099Z,8.85
2019-05-21T23:09:58.551Z,8.58
2019-05-21T23:15:03.315Z,9.33
2019-05-21T23:20:10.797Z,8.45
2019-05-21T23:25:17.014Z,8.45
2019-05-21T23:30:21.663Z,8.18
2019-05-21T23:35:27.077Z,8.20
2019-05-21T23:40:32.316Z,7.80
2019-05-21T23:45:36.761Z,8.00
2019-05-21T23:50:41.070Z,7.97
2019-05-21T23:55:46.280Z,7.75
